createdAt,value
2022-10-05T00:00:18.238Z,42.53
2022-10-05T00:02:46.462Z,43.13
2022-10-05T00:05:25.942Z,41.38
2022-10-05T00:07:54.085Z,41.53
2022-10-05T00:10:20.721Z,43.28
2022-10-05T00:12:48.234Z,42.22
2022-10-05T00:15:17.729Z,40.95
2022-10-05T00:17:44.523Z,39.60
2022-10-05T00:20:26.200Z,42.70
2022-10-05T00:23:02.333Z,41.10
2022-10-05T00:25:29.060Z,40.45
2022-10-05T00:28:01.049Z,44.13
2022-10-05T00:30:32.999Z,39.63
2022-10-05T00:32:59.982Z,40.55
2022-10-05T00:35:29.136Z,41.10
2022-10-05T00:37:56.198Z,42.40
2022-10-05T00:40:36.369Z,39.00
2022-10-05T00:43:21.072Z,35.25
2022-10-05T00:45:57.277Z,38.13
2022-10-05T00:48:42.476Z,35.95
2022-10-05T00:51:30.065Z,37.00
2022-10-05T00:54:32.221Z,37.38
2022-10-05T00:57:23.852Z,36.78
2022-10-05T01:00:08.369Z,32.63
2022-10-05T01:02:49.074Z,32.30
2022-10-05T01:05:43.257Z,32.97
2022-10-05T01:08:28.404Z,32.17
2022-10-05T01:11:13.001Z,32.47
2022-10-05T01:13:48.548Z,31.55
2022-10-05T01:16:21.042Z,32.72
2022-10-05T01:18:57.545Z,32.05
2022-10-05T01:21:26.830Z,33.08
2022-10-05T01:24:29.014Z,33.05
2022-10-05T01:27:04.273Z,33.00
2022-10-05T01:29:42.524Z,32.88
2022-10-05T01:32:14.846Z,33.38
2022-10-05T01:34:47.669Z,33.33
2022-10-05T01:37:27.407Z,33.85
2022-10-05T01:40:33.909Z,33.67
2022-10-05T01:43:18.965Z,32.92
2022-10-05T01:46:11.806Z,32.70
2022-10-05T01:48:56.853Z,33.30
2022-10-05T01:51:40.726Z,32.80
2022-10-05T01:54:37.566Z,32.38
2022-10-05T01:57:45.907Z,32.85
2022-10-05T02:00:17.855Z,32.13
2022-10-05T02:03:02.005Z,33.53
2022-10-05T02:05:40.984Z,31.90
2022-10-05T02:08:14.424Z,35.13
2022-10-05T02:10:44.321Z,32.00
2022-10-05T02:13:18.342Z,35.25
2022-10-05T02:15:49.840Z,33.72
2022-10-05T02:18:23.270Z,33.50
2022-10-05T02:20:52.329Z,34.42
2022-10-05T02:23:23.253Z,34.08
2022-10-05T02:25:52.814Z,34.08
2022-10-05T02:28:30.659Z,35.53
2022-10-05T02:31:11.301Z,33.25
2022-10-05T02:33:38.335Z,35.60
2022-10-05T02:36:12.527Z,35.05
2022-10-05T02:38:51.496Z,35.33
2022-10-05T02:42:02.163Z,32.83
2022-10-05T02:44:35.797Z,34.27
2022-10-05T02:47:42.539Z,32.78
2022-10-05T02:50:27.160Z,34.15
2022-10-05T02:53:13.040Z,34.08
2022-10-05T02:55:51.654Z,31.17
2022-10-05T02:58:31.852Z,32.60
2022-10-05T03:01:13.766Z,33.38
2022-10-05T03:03:54.981Z,32.95
2022-10-05T03:06:32.518Z,32.22
2022-10-05T03:09:05.092Z,32.45
2022-10-05T03:11:55.902Z,30.90
2022-10-05T03:14:26.133Z,34.63
2022-10-05T03:17:13.183Z,36.23
2022-10-05T03:19:57.689Z,31.73
2022-10-05T03:22:47.238Z,32.83
2022-10-05T03:25:31.126Z,33.83
2022-10-05T03:28:03.938Z,32.80
2022-10-05T03:30:46.891Z,35.85
2022-10-05T03:33:41.157Z,34.75
2022-10-05T03:36:18.226Z,30.95
2022-10-05T03:38:56.018Z,29.65
2022-10-05T03:41:34.204Z,32.75
2022-10-05T03:44:18.783Z,31.95
2022-10-05T03:46:51.481Z,31.05
2022-10-05T03:50:06.848Z,30.88
2022-10-05T03:52:41.388Z,31.90
2022-10-05T03:55:40.420Z,35.35
2022-10-05T03:58:14.895Z,33.80
2022-10-05T04:00:46.065Z,32.47
2022-10-05T04:05:48.839Z,30.58
2022-10-05T04:08:26.304Z,30.55
2022-10-05T04:10:56.858Z,31.85
2022-10-05T04:13:52.645Z,32.17
2022-10-05T04:16:24.988Z,33.83
2022-10-05T04:19:00.249Z,32.33
2022-10-05T04:21:34.646Z,32.40
2022-10-05T04:24:09.353Z,31.05
2022-10-05T04:26:53.402Z,33.55
2022-10-05T04:30:01.630Z,33.30
2022-10-05T04:32:44.713Z,29.88
2022-10-05T04:35:20.191Z,33.17
2022-10-05T04:38:11.453Z,31.23
2022-10-05T04:40:53.930Z,30.92
2022-10-05T04:43:23.381Z,31.52
2022-10-05T04:45:49.732Z,30.38
2022-10-05T04:48:34.575Z,29.05
2022-10-05T04:51:06.273Z,28.73
2022-10-05T04:53:40.437Z,29.75
2022-10-05T04:56:06.804Z,34.08
2022-10-05T04:59:11.100Z,30.00
2022-10-05T05:02:01.770Z,30.30
2022-10-05T05:05:01.912Z,29.27
2022-10-05T05:07:54.254Z,28.48
2022-10-05T05:11:24.298Z,30.02
2022-10-05T05:13:59.704Z,29.85
2022-10-05T05:16:37.546Z,31.98
2022-10-05T05:19:22.928Z,29.33
2022-10-05T05:22:01.284Z,33.65
2022-10-05T05:24:33.560Z,31.63
2022-10-05T05:27:38.929Z,31.17
2022-10-05T05:30:28.998Z,32.50
2022-10-05T05:33:07.508Z,30.02
2022-10-05T05:36:04.297Z,30.92
2022-10-05T05:38:49.917Z,30.23
2022-10-05T05:41:22.575Z,31.90
2022-10-05T05:44:05.118Z,30.48
2022-10-05T05:47:02.218Z,31.38
2022-10-05T05:49:56.224Z,31.52
2022-10-05T05:52:28.737Z,29.58
2022-10-05T05:55:07.477Z,32.17
2022-10-05T05:58:05.847Z,28.02
2022-10-05T06:00:45.383Z,29.13
2022-10-05T06:03:24.101Z,26.42
2022-10-05T06:06:01.669Z,28.63
2022-10-05T06:08:56.130Z,29.98
2022-10-05T06:11:30.893Z,32.22
2022-10-05T06:14:05.101Z,33.75
2022-10-05T06:16:39.085Z,35.75
2022-10-05T06:19:11.858Z,33.50
2022-10-05T06:22:12.730Z,34.20
2022-10-05T06:25:15.747Z,31.23
2022-10-05T06:28:03.957Z,34.30
2022-10-05T06:30:43.050Z,34.35
2022-10-05T06:33:23.724Z,34.35
2022-10-05T06:36:08.300Z,35.50
2022-10-05T06:38:53.344Z,35.72
2022-10-05T06:41:38.602Z,36.08
2022-10-05T06:44:22.554Z,35.83
2022-10-05T06:47:07.190Z,33.35
2022-10-05T06:49:58.846Z,33.67
2022-10-05T06:53:02.474Z,32.72
2022-10-05T06:56:15.321Z,36.17
2022-10-05T06:59:06.679Z,34.47
2022-10-05T07:04:09.991Z,32.30
2022-10-05T07:07:00.131Z,30.23
2022-10-05T07:09:49.054Z,33.08
2022-10-05T07:12:28.690Z,31.02
2022-10-05T07:15:16.202Z,31.52
2022-10-05T07:18:04.682Z,34.10
2022-10-05T07:21:04.722Z,28.58
2022-10-05T07:24:00.523Z,24.30
2022-10-05T07:26:46.963Z,25.48
2022-10-05T07:29:43.264Z,23.17
2022-10-05T07:32:15.580Z,28.67
2022-10-05T07:35:08.037Z,27.38
2022-10-05T07:37:54.293Z,28.85
2022-10-05T07:40:32.558Z,25.02
2022-10-05T07:43:10.873Z,23.33
2022-10-05T07:46:14.446Z,20.88
2022-10-05T07:48:56.944Z,22.48
2022-10-05T07:51:32.161Z,22.90
2022-10-05T07:54:15.510Z,22.88
2022-10-05T07:56:50.129Z,25.95
2022-10-05T07:59:23.664Z,25.30
2022-10-05T08:02:00.609Z,24.58
2022-10-05T08:04:46.682Z,22.65
2022-10-05T08:07:17.329Z,24.88
2022-10-05T08:10:14.334Z,21.60
2022-10-05T08:12:53.302Z,22.58
2022-10-05T08:15:27.769Z,22.65
2022-10-05T08:17:57.011Z,25.38
2022-10-05T08:20:36.487Z,25.17
2022-10-05T08:23:19.955Z,21.95
2022-10-05T08:25:55.387Z,23.77
2022-10-05T08:28:31.151Z,19.60
2022-10-05T08:31:09.669Z,20.98
2022-10-05T08:33:48.902Z,22.80
2022-10-05T08:36:20.744Z,19.70
2022-10-05T08:38:51.277Z,21.25
2022-10-05T08:41:50.064Z,17.35
2022-10-05T08:44:31.826Z,18.50
2022-10-05T08:47:43.000Z,18.17
2022-10-05T08:50:35.604Z,18.60
2022-10-05T08:53:20.966Z,20.73
2022-10-05T08:56:27.767Z,20.85
2022-10-05T08:59:26.037Z,22.10
2022-10-05T09:02:23.571Z,18.25
2022-10-05T09:05:20.663Z,20.80
2022-10-05T09:08:14.844Z,20.50
2022-10-05T09:10:57.103Z,22.23
2022-10-05T09:14:01.060Z,20.77
2022-10-05T09:16:56.595Z,16.88
2022-10-05T09:19:47.290Z,22.83
2022-10-05T09:22:38.631Z,19.35
2022-10-05T09:25:23.382Z,20.25
2022-10-05T09:27:56.076Z,18.48
2022-10-05T09:30:43.639Z,18.17
2022-10-05T09:33:26.005Z,18.02
2022-10-05T09:35:52.364Z,16.00
2022-10-05T09:38:55.593Z,17.05
2022-10-05T09:41:45.675Z,16.80
2022-10-05T09:44:15.132Z,18.60
2022-10-05T09:46:42.076Z,18.38
2022-10-05T09:49:46.270Z,17.58
2022-10-05T09:52:28.476Z,14.13
2022-10-05T09:55:35.840Z,14.48
2022-10-05T09:58:22.506Z,14.75
2022-10-05T10:01:15.957Z,13.77
2022-10-05T10:04:25.218Z,13.43
2022-10-05T10:07:05.031Z,14.75
2022-10-05T10:10:08.876Z,13.38
2022-10-05T10:12:50.233Z,13.75
2022-10-05T10:15:40.362Z,13.02
2022-10-05T10:18:18.660Z,13.43
2022-10-05T10:20:59.422Z,13.40
2022-10-05T10:23:40.159Z,13.23
2022-10-05T10:26:25.237Z,14.85
2022-10-05T10:29:19.677Z,13.65
2022-10-05T10:32:04.848Z,14.00
2022-10-05T10:35:20.002Z,15.30
2022-10-05T10:37:52.474Z,13.43
2022-10-05T10:40:36.729Z,14.02
2022-10-05T10:43:22.166Z,13.43
2022-10-05T10:46:07.198Z,12.32
2022-10-05T10:48:55.808Z,11.57
2022-10-05T10:51:48.101Z,14.85
2022-10-05T10:54:56.582Z,13.05
2022-10-05T10:57:40.451Z,13.93
2022-10-05T11:00:34.573Z,14.75
2022-10-05T11:03:10.207Z,12.70
2022-10-05T11:05:51.745Z,11.80
2022-10-05T11:08:39.837Z,10.15
2022-10-05T11:11:44.158Z,10.07
2022-10-05T11:14:44.409Z,11.95
2022-10-05T11:17:31.696Z,13.43
2022-10-05T11:20:16.374Z,11.68
2022-10-05T11:22:58.082Z,11.70
2022-10-05T11:25:46.363Z,12.85
2022-10-05T11:28:15.875Z,13.65
2022-10-05T11:31:09.904Z,12.45
2022-10-05T11:34:27.335Z,14.73
2022-10-05T11:37:05.725Z,15.15
2022-10-05T11:39:44.874Z,14.82
2022-10-05T11:42:29.552Z,16.80
2022-10-05T11:45:21.657Z,14.82
2022-10-05T11:48:03.833Z,16.80
2022-10-05T11:50:45.890Z,18.05
2022-10-05T11:53:46.617Z,17.50
2022-10-05T11:56:24.161Z,19.05
2022-10-05T11:58:57.914Z,19.92
2022-10-05T12:01:34.935Z,18.65
2022-10-05T12:04:20.640Z,18.85
2022-10-05T12:07:05.058Z,20.85
2022-10-05T12:10:17.092Z,22.90
2022-10-05T12:13:25.716Z,20.67
2022-10-05T12:16:05.459Z,21.35
2022-10-05T12:18:32.556Z,20.30
2022-10-05T12:21:28.843Z,22.88
2022-10-05T12:24:04.913Z,20.10
2022-10-05T12:26:37.504Z,22.15
2022-10-05T12:29:16.969Z,21.52
2022-10-05T12:32:11.495Z,19.60
2022-10-05T12:35:01.486Z,21.73
2022-10-05T12:37:44.286Z,23.50
2022-10-05T12:40:53.934Z,22.90
2022-10-05T12:43:45.119Z,25.08
2022-10-05T12:46:31.186Z,24.30
2022-10-05T12:49:35.339Z,19.35
2022-10-05T12:52:04.839Z,21.30
2022-10-05T12:54:55.269Z,22.20
2022-10-05T12:57:34.039Z,20.38
2022-10-05T13:00:12.330Z,24.77
2022-10-05T13:02:46.105Z,21.38
2022-10-05T13:05:27.612Z,21.85
2022-10-05T13:08:03.145Z,23.15
2022-10-05T13:10:40.828Z,20.92
2022-10-05T13:13:25.248Z,21.52
2022-10-05T13:16:25.958Z,21.08
2022-10-05T13:19:04.521Z,20.55
2022-10-05T13:21:46.189Z,23.55
2022-10-05T13:24:26.759Z,22.77
2022-10-05T13:27:15.103Z,22.25
2022-10-05T13:30:08.377Z,22.00
2022-10-05T13:32:47.825Z,23.92
2022-10-05T13:35:17.259Z,22.63
2022-10-05T13:37:59.763Z,21.27
2022-10-05T13:40:49.773Z,22.92
2022-10-05T13:43:34.526Z,23.58
2022-10-05T13:46:23.746Z,20.83
2022-10-05T13:49:01.178Z,21.63
2022-10-05T13:51:54.582Z,22.67
2022-10-05T13:54:39.086Z,19.98
2022-10-05T13:57:23.430Z,22.90
2022-10-05T14:00:02.044Z,24.95
2022-10-05T14:02:37.936Z,25.25
2022-10-05T14:05:20.277Z,24.13
2022-10-05T14:08:19.048Z,24.15
2022-10-05T14:10:47.403Z,23.30
2022-10-05T14:13:26.676Z,25.88
2022-10-05T14:16:12.804Z,24.20
2022-10-05T14:18:50.980Z,23.52
2022-10-05T14:21:26.466Z,22.58
2022-10-05T14:23:53.436Z,22.40
2022-10-05T14:26:25.686Z,22.65
2022-10-05T14:29:19.492Z,22.77
2022-10-05T14:32:00.910Z,21.20
2022-10-05T14:34:36.299Z,22.40
2022-10-05T14:37:21.337Z,22.35
2022-10-05T14:39:49.908Z,23.65
2022-10-05T14:42:18.148Z,23.17
2022-10-05T14:44:46.072Z,21.35
2022-10-05T14:47:20.414Z,24.30
2022-10-05T14:50:10.655Z,22.42
2022-10-05T14:52:38.916Z,24.38
2022-10-05T14:55:28.718Z,21.88
2022-10-05T14:58:16.697Z,21.65
2022-10-05T15:00:58.286Z,22.95
2022-10-05T15:03:45.633Z,22.88
2022-10-05T15:06:37.310Z,22.23
2022-10-05T15:09:24.797Z,22.08
2022-10-05T15:11:54.953Z,21.67
2022-10-05T15:14:29.423Z,22.05
2022-10-05T15:17:03.139Z,21.50
2022-10-05T15:19:48.705Z,22.42
2022-10-05T15:22:41.218Z,21.75
2022-10-05T15:25:22.231Z,21.52
2022-10-05T15:28:25.912Z,21.52
2022-10-05T15:31:04.388Z,23.10
2022-10-05T15:33:43.381Z,22.17
2022-10-05T15:36:26.415Z,20.92
2022-10-05T15:39:20.645Z,26.30
2022-10-05T15:42:00.881Z,22.63
2022-10-05T15:44:55.210Z,25.13
2022-10-05T15:48:02.723Z,23.90
2022-10-05T15:50:46.523Z,22.83
2022-10-05T15:53:33.172Z,25.15
2022-10-05T15:56:38.542Z,23.65
2022-10-05T15:59:38.627Z,22.75
2022-10-05T16:02:14.412Z,25.63
2022-10-05T16:04:43.825Z,25.30
2022-10-05T16:07:37.404Z,26.13
2022-10-05T16:10:06.592Z,25.38
2022-10-05T16:13:00.949Z,25.25
2022-10-05T16:15:36.726Z,27.27
2022-10-05T16:18:26.822Z,27.08
2022-10-05T16:20:59.851Z,26.37
2022-10-05T16:23:26.220Z,28.38
2022-10-05T16:26:14.624Z,27.63
2022-10-05T16:28:59.497Z,24.50
2022-10-05T16:31:49.061Z,26.35
2022-10-05T16:34:18.215Z,25.10
2022-10-05T16:37:02.922Z,27.40
2022-10-05T16:39:50.655Z,28.23
2022-10-05T16:42:35.871Z,25.60
2022-10-05T16:45:29.458Z,28.90
2022-10-05T16:48:29.489Z,25.00
2022-10-05T16:50:58.828Z,29.58
2022-10-05T16:53:33.056Z,31.10
2022-10-05T16:56:07.005Z,31.65
2022-10-05T16:59:05.189Z,31.90
2022-10-05T17:01:46.656Z,30.00
2022-10-05T17:04:24.789Z,29.80
2022-10-05T17:07:12.813Z,27.17
2022-10-05T17:09:50.603Z,27.50
2022-10-05T17:12:39.190Z,25.95
2022-10-05T17:15:25.765Z,28.02
2022-10-05T17:18:16.646Z,28.55
2022-10-05T17:20:54.974Z,29.83
2022-10-05T17:23:41.984Z,30.27
2022-10-05T17:26:53.822Z,29.40
2022-10-05T17:29:42.842Z,29.20
2022-10-05T17:32:33.535Z,30.58
2022-10-05T17:35:02.552Z,28.13
2022-10-05T17:37:38.033Z,31.23
2022-10-05T17:40:30.168Z,27.95
2022-10-05T17:43:15.336Z,31.48
2022-10-05T17:45:41.737Z,29.63
2022-10-05T17:48:39.908Z,31.08
2022-10-05T17:51:56.834Z,31.50
2022-10-05T17:54:43.187Z,31.70
2022-10-05T17:57:09.551Z,32.30
2022-10-05T18:00:00.445Z,33.28
2022-10-05T18:02:36.644Z,30.83
2022-10-05T18:05:04.198Z,31.92
2022-10-05T18:07:32.393Z,35.45
2022-10-05T18:10:17.231Z,34.08
2022-10-05T18:13:14.151Z,35.90
2022-10-05T18:15:46.308Z,32.33
2022-10-05T18:18:42.977Z,32.38
2022-10-05T18:21:15.479Z,31.90
2022-10-05T18:24:01.590Z,32.33
2022-10-05T18:26:41.470Z,32.10
2022-10-05T18:29:43.664Z,31.52
2022-10-05T18:32:24.791Z,32.80
2022-10-05T18:35:02.341Z,35.72
2022-10-05T18:37:43.942Z,32.42
2022-10-05T18:40:25.608Z,34.25
2022-10-05T18:43:18.111Z,34.03
2022-10-05T18:46:08.393Z,34.67
2022-10-05T18:48:57.785Z,35.47
2022-10-05T18:51:51.951Z,31.48
2022-10-05T18:54:40.722Z,33.88
2022-10-05T18:57:29.040Z,35.40
2022-10-05T19:00:07.015Z,37.05
2022-10-05T19:02:42.976Z,35.92
2022-10-05T19:05:48.465Z,36.55
2022-10-05T19:08:28.010Z,36.15
2022-10-05T19:11:28.498Z,36.58
2022-10-05T19:14:14.012Z,35.08
2022-10-05T19:16:43.547Z,35.13
2022-10-05T19:19:33.159Z,34.67
2022-10-05T19:22:25.139Z,34.90
2022-10-05T19:25:06.770Z,36.45
2022-10-05T19:27:44.227Z,37.80
2022-10-05T19:30:23.883Z,38.90
2022-10-05T19:33:23.318Z,38.53
2022-10-05T19:36:26.554Z,37.75
2022-10-05T19:39:06.827Z,37.55
2022-10-05T19:42:04.921Z,40.08
2022-10-05T19:44:50.331Z,41.22
2022-10-05T19:47:46.876Z,38.20
2022-10-05T19:50:23.905Z,38.40
2022-10-05T19:52:57.065Z,38.78
2022-10-05T19:55:34.563Z,38.30
2022-10-05T19:58:01.294Z,38.15
2022-10-05T20:00:34.465Z,39.28
2022-10-05T20:03:14.549Z,40.33
2022-10-05T20:05:41.280Z,40.25
2022-10-05T20:08:15.164Z,38.35
2022-10-05T20:10:41.650Z,38.70
2022-10-05T20:13:20.107Z,39.28
2022-10-05T20:16:33.964Z,38.75
2022-10-05T20:19:19.826Z,39.80
2022-10-05T20:21:51.917Z,36.50
2022-10-05T20:24:28.827Z,36.42
2022-10-05T20:27:02.748Z,35.85
2022-10-05T20:29:31.730Z,36.80
2022-10-05T20:31:58.896Z,40.28
2022-10-05T20:34:25.439Z,41.35
2022-10-05T20:36:52.214Z,42.85
2022-10-05T20:39:21.154Z,39.97
2022-10-05T20:41:47.700Z,38.97
2022-10-05T20:44:16.985Z,41.47
2022-10-05T20:46:43.512Z,39.83
2022-10-05T20:49:13.190Z,39.15
2022-10-05T20:51:40.310Z,41.95
2022-10-05T20:54:07.886Z,40.53
2022-10-05T20:56:34.444Z,42.17
2022-10-05T20:59:00.920Z,41.30
2022-10-05T21:01:28.883Z,42.75
2022-10-05T21:03:56.036Z,45.33
2022-10-05T21:06:22.575Z,41.47
2022-10-05T21:08:51.304Z,40.13
2022-10-05T21:11:17.824Z,39.53
2022-10-05T21:13:45.155Z,44.67
2022-10-05T21:16:18.226Z,41.95
2022-10-05T21:18:49.048Z,47.15
2022-10-05T21:21:18.736Z,41.90
2022-10-05T21:23:46.212Z,43.35
2022-10-05T21:26:13.478Z,44.88
2022-10-05T21:28:40.646Z,43.45
2022-10-05T21:31:08.108Z,47.28
2022-10-05T21:33:35.264Z,46.00
2022-10-05T21:36:02.398Z,45.30
2022-10-05T21:38:29.760Z,43.95
2022-10-05T21:40:56.509Z,48.97
2022-10-05T21:43:22.962Z,45.72
2022-10-05T21:45:49.473Z,42.38
2022-10-05T21:48:17.522Z,42.90
2022-10-05T21:50:44.936Z,42.42
2022-10-05T21:53:14.536Z,43.13
2022-10-05T21:55:43.482Z,42.90
2022-10-05T21:58:13.078Z,43.33
2022-10-05T22:00:41.052Z,47.78
2022-10-05T22:03:08.588Z,44.45
2022-10-05T22:05:35.070Z,42.80
2022-10-05T22:08:01.504Z,45.05
2022-10-05T22:10:29.037Z,45.97
2022-10-05T22:13:04.612Z,45.67
2022-10-05T22:15:31.663Z,45.28
2022-10-05T22:17:59.708Z,44.63
2022-10-05T22:20:26.893Z,48.50
2022-10-05T22:22:53.962Z,47.92
2022-10-05T22:25:21.827Z,47.38
2022-10-05T22:27:49.544Z,49.10
2022-10-05T22:30:16.299Z,44.78
2022-10-05T22:32:44.137Z,43.92
2022-10-05T22:35:11.737Z,47.30
2022-10-05T22:37:38.575Z,46.10
2022-10-05T22:40:07.265Z,48.13
2022-10-05T22:42:34.739Z,46.80
2022-10-05T22:45:01.173Z,45.60
2022-10-05T22:47:27.563Z,49.78
2022-10-05T22:49:54.052Z,48.95
2022-10-05T22:52:20.533Z,46.00
2022-10-05T22:54:46.921Z,47.33
2022-10-05T22:57:13.328Z,49.38
2022-10-05T22:59:39.780Z,50.40
2022-10-05T23:02:06.252Z,47.42
2022-10-05T23:04:32.720Z,50.03
2022-10-05T23:06:59.125Z,52.90
2022-10-05T23:09:25.591Z,50.75
2022-10-05T23:11:54.198Z,49.47
2022-10-05T23:14:20.941Z,50.13
2022-10-05T23:16:47.823Z,51.45
2022-10-05T23:19:14.357Z,49.33
2022-10-05T23:21:40.807Z,52.83
2022-10-05T23:24:08.003Z,51.55
2022-10-05T23:26:34.663Z,51.97
2022-10-05T23:29:01.144Z,49.50
2022-10-05T23:31:30.939Z,52.38
2022-10-05T23:33:57.670Z,48.00
2022-10-05T23:36:26.781Z,51.17
2022-10-05T23:38:53.918Z,51.38
2022-10-05T23:41:20.781Z,50.33
2022-10-05T23:43:47.515Z,48.47
2022-10-05T23:46:14.460Z,48.42
2022-10-05T23:48:40.994Z,48.13
2022-10-05T23:51:10.172Z,48.05
2022-10-05T23:53:37.081Z,47.85
2022-10-05T23:56:04.571Z,52.67
2022-10-05T23:58:31.451Z,47.83
